sensor_id;sensor_type;location;lat;lon;timestamp;pressure;altitude;pressure_sealevel;temperature;humidity
6150;BME280;3106;42.670;23.318;2023-11-19T00:01:37;94306.97;;;3.34;91.55
6150;BME280;3106;42.670;23.318;2023-11-19T00:04:04;94307.44;;;3.36;91.71
6150;BME280;3106;42.670;23.318;2023-11-19T00:06:32;94373.03;;;3.78;91.69
6150;BME280;3106;42.670;23.318;2023-11-19T00:08:59;94263.78;;;3.17;91.23
6150;BME280;3106;42.670;23.318;2023-11-19T00:11:26;94371.53;;;3.86;91.98
6150;BME280;3106;42.670;23.318;2023-11-19T00:13:53;94375.59;;;3.83;91.67
6150;BME280;3106;42.670;23.318;2023-11-19T00:16:20;94310.75;;;3.42;92.01
6150;BME280;3106;42.670;23.318;2023-11-19T00:18:47;94380.06;;;3.83;91.90
6150;BME280;3106;42.670;23.318;2023-11-19T00:21:15;94258.06;;;3.01;91.54
6150;BME280;3106;42.670;23.318;2023-11-19T00:23:44;94385.22;;;3.88;91.46
6150;BME280;3106;42.670;23.318;2023-11-19T00:26:11;94272.50;;;3.17;91.59
6150;BME280;3106;42.670;23.318;2023-11-19T00:28:40;94266.31;;;3.22;91.20
6150;BME280;3106;42.670;23.318;2023-11-19T00:31:08;94326.97;;;3.49;91.12
6150;BME280;3106;42.670;23.318;2023-11-19T00:33:35;94374.97;;;3.86;91.30
6150;BME280;3106;42.670;23.318;2023-11-19T00:36:03;94257.34;;;3.09;91.15
6150;BME280;3106;42.670;23.318;2023-11-19T00:38:30;94268.19;;;3.21;91.14
6150;BME280;3106;42.670;23.318;2023-11-19T00:40:59;94249.25;;;3.06;90.39
6150;BME280;3106;42.670;23.318;2023-11-19T00:43:27;94309.94;;;3.41;91.00
6150;BME280;3106;42.670;23.318;2023-11-19T00:45:54;94269.50;;;3.32;91.04
6150;BME280;3106;42.670;23.318;2023-11-19T00:48:21;94322.81;;;3.56;90.98
6150;BME280;3106;42.670;23.318;2023-11-19T00:50:48;94228.47;;;2.91;91.34
6150;BME280;3106;42.670;23.318;2023-11-19T00:53:15;94399.25;;;3.88;91.39
6150;BME280;3106;42.670;23.318;2023-11-19T00:55:42;94336.38;;;3.41;91.91
6150;BME280;3106;42.670;23.318;2023-11-19T00:58:10;94393.41;;;3.78;91.83
6150;BME280;3106;42.670;23.318;2023-11-19T01:00:37;94304.63;;;3.33;92.26
6150;BME280;3106;42.670;23.318;2023-11-19T01:03:05;94361.88;;;3.59;91.96
6150;BME280;3106;42.670;23.318;2023-11-19T01:05:33;94337.88;;;3.34;92.33
6150;BME280;3106;42.670;23.318;2023-11-19T01:08:00;94274.38;;;3.03;91.91
6150;BME280;3106;42.670;23.318;2023-11-19T01:10:27;94263.94;;;2.98;92.27
6150;BME280;3106;42.670;23.318;2023-11-19T01:12:54;94412.16;;;3.68;91.94
6150;BME280;3106;42.670;23.318;2023-11-19T01:15:22;94390.09;;;3.72;91.49
6150;BME280;3106;42.670;23.318;2023-11-19T01:17:49;94201.22;;;2.60;91.97
6150;BME280;3106;42.670;23.318;2023-11-19T01:20:16;94277.22;;;3.07;92.11
6150;BME280;3106;42.670;23.318;2023-11-19T01:22:45;94298.91;;;3.17;91.95
6150;BME280;3106;42.670;23.318;2023-11-19T01:25:14;94363.22;;;3.57;92.03
6150;BME280;3106;42.670;23.318;2023-11-19T01:27:41;94272.66;;;2.99;92.24
6150;BME280;3106;42.670;23.318;2023-11-19T01:30:09;94212.84;;;2.59;91.84
6150;BME280;3106;42.670;23.318;2023-11-19T01:32:39;94261.66;;;2.84;91.56
6150;BME280;3106;42.670;23.318;2023-11-19T01:35:07;94296.09;;;3.00;91.72
6150;BME280;3106;42.670;23.318;2023-11-19T01:37:34;94351.97;;;3.29;91.31
6150;BME280;3106;42.670;23.318;2023-11-19T01:40:02;94308.13;;;3.06;91.47
6150;BME280;3106;42.670;23.318;2023-11-19T01:42:30;94321.13;;;3.16;90.93
6150;BME280;3106;42.670;23.318;2023-11-19T01:45:03;94296.44;;;2.99;90.24
6150;BME280;3106;42.670;23.318;2023-11-19T01:47:32;94341.53;;;3.24;90.94
6150;BME280;3106;42.670;23.318;2023-11-19T01:50:02;94341.28;;;3.12;90.10
6150;BME280;3106;42.670;23.318;2023-11-19T01:52:32;94312.81;;;3.09;89.58
6150;BME280;3106;42.670;23.318;2023-11-19T01:55:02;94410.91;;;3.87;89.17
6150;BME280;3106;42.670;23.318;2023-11-19T01:57:30;94258.66;;;2.77;88.67
6150;BME280;3106;42.670;23.318;2023-11-19T01:59:57;94420.41;;;3.88;88.93
6150;BME280;3106;42.670;23.318;2023-11-19T02:02:25;94331.44;;;3.26;88.92
6150;BME280;3106;42.670;23.318;2023-11-19T02:04:52;94325.31;;;3.17;89.07
6150;BME280;3106;42.670;23.318;2023-11-19T02:07:21;94418.88;;;3.74;89.16
6150;BME280;3106;42.670;23.318;2023-11-19T02:09:48;94247.69;;;2.70;88.94
6150;BME280;3106;42.670;23.318;2023-11-19T02:12:15;94297.66;;;3.01;89.40
6150;BME280;3106;42.670;23.318;2023-11-19T02:14:42;94375.31;;;3.49;88.41
6150;BME280;3106;42.670;23.318;2023-11-19T02:17:25;94318.84;;;3.23;88.68
6150;BME280;3106;42.670;23.318;2023-11-19T02:19:54;94270.75;;;2.78;89.13
6150;BME280;3106;42.670;23.318;2023-11-19T02:22:23;94269.22;;;2.77;88.92
6150;BME280;3106;42.670;23.318;2023-11-19T02:24:51;94384.50;;;3.52;89.53
6150;BME280;3106;42.670;23.318;2023-11-19T02:27:28;94385.50;;;3.42;89.84
6150;BME280;3106;42.670;23.318;2023-11-19T02:29:58;94349.78;;;3.09;89.31
6150;BME280;3106;42.670;23.318;2023-11-19T02:32:27;94390.00;;;3.42;89.70
6150;BME280;3106;42.670;23.318;2023-11-19T02:34:56;94226.78;;;2.38;89.66
6150;BME280;3106;42.670;23.318;2023-11-19T02:37:23;94390.78;;;3.42;89.97
6150;BME280;3106;42.670;23.318;2023-11-19T02:39:50;94213.19;;;2.31;90.11
6150;BME280;3106;42.670;23.318;2023-11-19T02:42:17;94329.31;;;2.93;89.42
6150;BME280;3106;42.670;23.318;2023-11-19T02:44:44;94288.34;;;2.69;90.44
6150;BME280;3106;42.670;23.318;2023-11-19T02:47:13;94377.63;;;3.29;90.09
6150;BME280;3106;42.670;23.318;2023-11-19T02:49:40;94332.44;;;2.82;90.53
6150;BME280;3106;42.670;23.318;2023-11-19T02:52:08;94320.91;;;2.78;90.51
6150;BME280;3106;42.670;23.318;2023-11-19T02:54:36;94296.38;;;2.50;90.33
6150;BME280;3106;42.670;23.318;2023-11-19T02:57:03;94323.63;;;2.73;91.04
6150;BME280;3106;42.670;23.318;2023-11-19T02:59:30;94248.66;;;2.25;90.68
6150;BME280;3106;42.670;23.318;2023-11-19T03:02:04;94346.59;;;2.86;90.22
6150;BME280;3106;42.670;23.318;2023-11-19T03:04:33;94310.16;;;2.61;90.10
6150;BME280;3106;42.670;23.318;2023-11-19T03:07:00;94230.56;;;2.32;90.27
6150;BME280;3106;42.670;23.318;2023-11-19T03:09:28;94319.16;;;2.73;90.06
6150;BME280;3106;42.670;23.318;2023-11-19T03:11:56;94389.91;;;3.11;90.26
6150;BME280;3106;42.670;23.318;2023-11-19T03:14:23;94260.75;;;2.26;90.24
6150;BME280;3106;42.670;23.318;2023-11-19T03:16:49;94229.31;;;2.16;90.32
6150;BME280;3106;42.670;23.318;2023-11-19T03:19:16;94307.25;;;2.49;90.77
6150;BME280;3106;42.670;23.318;2023-11-19T03:21:45;94404.06;;;3.15;90.93
6150;BME280;3106;42.670;23.318;2023-11-19T03:24:13;94343.00;;;2.82;90.82
6150;BME280;3106;42.670;23.318;2023-11-19T03:26:41;94230.13;;;2.03;90.67
6150;BME280;3106;42.670;23.318;2023-11-19T03:29:08;94330.50;;;2.74;91.72
6150;BME280;3106;42.670;23.318;2023-11-19T03:31:35;94322.38;;;2.70;90.94
6150;BME280;3106;42.670;23.318;2023-11-19T03:34:02;94383.66;;;2.94;91.42
6150;BME280;3106;42.670;23.318;2023-11-19T03:36:32;94331.16;;;2.66;91.39
6150;BME280;3106;42.670;23.318;2023-11-19T03:39:01;94359.91;;;2.81;91.65
6150;BME280;3106;42.670;23.318;2023-11-19T03:41:27;94269.25;;;2.23;91.37
6150;BME280;3106;42.670;23.318;2023-11-19T03:43:54;94215.06;;;1.90;91.61
6150;BME280;3106;42.670;23.318;2023-11-19T03:46:21;94295.72;;;2.45;91.05
6150;BME280;3106;42.670;23.318;2023-11-19T03:48:49;94422.66;;;3.10;91.64
6150;BME280;3106;42.670;23.318;2023-11-19T03:51:16;94425.88;;;3.07;91.36
6150;BME280;3106;42.670;23.318;2023-11-19T03:53:44;94373.41;;;2.66;91.56
6150;BME280;3106;42.670;23.318;2023-11-19T03:56:12;94316.63;;;2.28;91.98
6150;BME280;3106;42.670;23.318;2023-11-19T03:58:40;94274.16;;;2.16;91.87
6150;BME280;3106;42.670;23.318;2023-11-19T04:01:11;94344.38;;;2.66;91.74
6150;BME280;3106;42.670;23.318;2023-11-19T04:03:38;94350.72;;;2.65;92.19
6150;BME280;3106;42.670;23.318;2023-11-19T04:06:06;94300.53;;;2.29;92.07
6150;BME280;3106;42.670;23.318;2023-11-19T04:08:33;94372.31;;;2.67;92.03
6150;BME280;3106;42.670;23.318;2023-11-19T04:11:01;94360.41;;;2.56;92.23
6150;BME280;3106;42.670;23.318;2023-11-19T04:13:29;94440.94;;;3.07;92.27
6150;BME280;3106;42.670;23.318;2023-11-19T04:15:56;94273.66;;;2.00;92.20
6150;BME280;3106;42.670;23.318;2023-11-19T04:18:23;94330.31;;;2.43;92.38
6150;BME280;3106;42.670;23.318;2023-11-19T04:20:50;94283.63;;;2.17;92.21
6150;BME280;3106;42.670;23.318;2023-11-19T04:23:17;94317.72;;;2.40;91.57
6150;BME280;3106;42.670;23.318;2023-11-19T04:25:44;94300.31;;;2.39;91.14
6150;BME280;3106;42.670;23.318;2023-11-19T04:28:11;94403.88;;;2.98;90.61
6150;BME280;3106;42.670;23.318;2023-11-19T04:30:40;94253.16;;;2.11;90.33
6150;BME280;3106;42.670;23.318;2023-11-19T04:33:06;94345.53;;;2.73;89.46
6150;BME280;3106;42.670;23.318;2023-11-19T04:35:34;94302.38;;;2.29;89.50
6150;BME280;3106;42.670;23.318;2023-11-19T04:38:00;94316.34;;;2.43;89.67
6150;BME280;3106;42.670;23.318;2023-11-19T04:40:27;94296.91;;;2.25;89.17
6150;BME280;3106;42.670;23.318;2023-11-19T04:42:54;94461.25;;;3.33;90.36
6150;BME280;3106;42.670;23.318;2023-11-19T04:45:21;94300.22;;;2.31;89.42
6150;BME280;3106;42.670;23.318;2023-11-19T04:47:49;94357.88;;;2.64;89.08
6150;BME280;3106;42.670;23.318;2023-11-19T04:50:17;94401.84;;;2.95;89.68
6150;BME280;3106;42.670;23.318;2023-11-19T04:52:44;94331.69;;;2.41;89.04
6150;BME280;3106;42.670;23.318;2023-11-19T04:55:12;94330.69;;;2.50;88.94
6150;BME280;3106;42.670;23.318;2023-11-19T04:57:40;94480.63;;;3.42;88.96
6150;BME280;3106;42.670;23.318;2023-11-19T05:00:09;94425.59;;;3.09;88.58
6150;BME280;3106;42.670;23.318;2023-11-19T05:02:37;94412.69;;;2.94;88.54
6150;BME280;3106;42.670;23.318;2023-11-19T05:05:05;94306.56;;;2.30;88.55
6150;BME280;3106;42.670;23.318;2023-11-19T05:07:32;94378.19;;;2.77;88.33
6150;BME280;3106;42.670;23.318;2023-11-19T05:09:59;94403.00;;;2.90;88.22
6150;BME280;3106;42.670;23.318;2023-11-19T05:12:26;94517.59;;;3.56;88.32
6150;BME280;3106;42.670;23.318;2023-11-19T05:14:53;94431.63;;;3.09;87.39
6150;BME280;3106;42.670;23.318;2023-11-19T05:17:20;94444.94;;;3.04;87.96
6150;BME280;3106;42.670;23.318;2023-11-19T05:19:47;94380.34;;;2.75;87.33
6150;BME280;3106;42.670;23.318;2023-11-19T05:22:17;94431.47;;;3.06;87.87
6150;BME280;3106;42.670;23.318;2023-11-19T05:24:46;94388.47;;;2.79;88.55
6150;BME280;3106;42.670;23.318;2023-11-19T05:27:14;94448.06;;;3.20;88.22
6150;BME280;3106;42.670;23.318;2023-11-19T05:29:41;94472.81;;;3.37;88.11
6150;BME280;3106;42.670;23.318;2023-11-19T05:32:09;94398.50;;;2.90;87.90
6150;BME280;3106;42.670;23.318;2023-11-19T05:34:36;94429.69;;;3.01;87.34
6150;BME280;3106;42.670;23.318;2023-11-19T05:37:04;94348.38;;;2.50;87.42
6150;BME280;3106;42.670;23.318;2023-11-19T05:39:32;94496.97;;;3.44;87.63
6150;BME280;3106;42.670;23.318;2023-11-19T05:41:59;94504.41;;;3.42;87.64
6150;BME280;3106;42.670;23.318;2023-11-19T05:44:26;94428.06;;;2.92;87.82
6150;BME280;3106;42.670;23.318;2023-11-19T05:46:53;94358.34;;;2.53;88.21
6150;BME280;3106;42.670;23.318;2023-11-19T05:49:20;94528.66;;;3.44;87.45
6150;BME280;3106;42.670;23.318;2023-11-19T05:51:47;94449.94;;;3.06;87.85
6150;BME280;3106;42.670;23.318;2023-11-19T05:54:14;94336.97;;;2.41;87.17
6150;BME280;3106;42.670;23.318;2023-11-19T05:56:47;94363.03;;;2.56;87.89
6150;BME280;3106;42.670;23.318;2023-11-19T05:59:14;94431.38;;;2.97;88.12
6150;BME280;3106;42.670;23.318;2023-11-19T06:01:43;94444.47;;;3.02;88.32
6150;BME280;3106;42.670;23.318;2023-11-19T06:04:10;94453.34;;;3.06;88.01
6150;BME280;3106;42.670;23.318;2023-11-19T06:06:37;94497.75;;;3.31;88.39
6150;BME280;3106;42.670;23.318;2023-11-19T06:09:05;94473.13;;;3.22;88.18
6150;BME280;3106;42.670;23.318;2023-11-19T06:11:33;94469.03;;;3.16;88.04
6150;BME280;3106;42.670;23.318;2023-11-19T06:14:02;94483.41;;;2.97;88.26
6150;BME280;3106;42.670;23.318;2023-11-19T06:16:31;94439.97;;;2.90;88.61
6150;BME280;3106;42.670;23.318;2023-11-19T06:18:58;94559.88;;;3.42;88.36
6150;BME280;3106;42.670;23.318;2023-11-19T06:21:25;94474.78;;;2.92;88.00
6150;BME280;3106;42.670;23.318;2023-11-19T06:23:52;94456.41;;;2.87;88.83
6150;BME280;3106;42.670;23.318;2023-11-19T06:26:20;94457.88;;;2.92;87.85
6150;BME280;3106;42.670;23.318;2023-11-19T06:28:47;94402.22;;;2.49;88.53
6150;BME280;3106;42.670;23.318;2023-11-19T06:31:16;94466.28;;;2.94;88.63
6150;BME280;3106;42.670;23.318;2023-11-19T06:33:43;94526.44;;;3.24;88.60
6150;BME280;3106;42.670;23.318;2023-11-19T06:36:10;94452.78;;;2.96;88.52
6150;BME280;3106;42.670;23.318;2023-11-19T06:38:37;94407.03;;;2.60;88.77
6150;BME280;3106;42.670;23.318;2023-11-19T06:41:07;94533.66;;;3.32;88.92
6150;BME280;3106;42.670;23.318;2023-11-19T06:43:36;94515.28;;;3.27;87.82
6150;BME280;3106;42.670;23.318;2023-11-19T06:46:03;94510.59;;;3.24;88.43
6150;BME280;3106;42.670;23.318;2023-11-19T06:48:32;94525.63;;;3.37;87.59
6150;BME280;3106;42.670;23.318;2023-11-19T06:50:59;94530.75;;;3.34;88.01
6150;BME280;3106;42.670;23.318;2023-11-19T06:53:26;94512.63;;;3.27;88.16
6150;BME280;3106;42.670;23.318;2023-11-19T06:55:54;94538.47;;;3.30;87.93
6150;BME280;3106;42.670;23.318;2023-11-19T06:58:22;94533.50;;;3.29;87.80
6150;BME280;3106;42.670;23.318;2023-11-19T07:00:49;94511.94;;;3.22;88.19
6150;BME280;3106;42.670;23.318;2023-11-19T07:03:16;94548.44;;;3.33;88.19
6150;BME280;3106;42.670;23.318;2023-11-19T07:05:44;94532.97;;;3.27;87.76
6150;BME280;3106;42.670;23.318;2023-11-19T07:08:14;94553.25;;;3.31;87.89
6150;BME280;3106;42.670;23.318;2023-11-19T07:10:42;94547.09;;;3.22;87.64
6150;BME280;3106;42.670;23.318;2023-11-19T07:13:09;94549.25;;;3.34;86.88
6150;BME280;3106;42.670;23.318;2023-11-19T07:15:35;94536.78;;;3.21;87.42
6150;BME280;3106;42.670;23.318;2023-11-19T07:18:03;94520.94;;;3.21;87.30
6150;BME280;3106;42.670;23.318;2023-11-19T07:20:30;94545.50;;;3.21;87.78
6150;BME280;3106;42.670;23.318;2023-11-19T07:22:59;94549.84;;;3.31;87.13
6150;BME280;3106;42.670;23.318;2023-11-19T07:25:26;94546.88;;;3.32;87.74
6150;BME280;3106;42.670;23.318;2023-11-19T07:27:53;94528.38;;;3.32;87.15
6150;BME280;3106;42.670;23.318;2023-11-19T07:30:20;94551.19;;;3.15;86.82
6150;BME280;3106;42.670;23.318;2023-11-19T07:32:47;94558.84;;;3.30;85.98
6150;BME280;3106;42.670;23.318;2023-11-19T07:35:14;94583.00;;;3.37;86.64
6150;BME280;3106;42.670;23.318;2023-11-19T07:37:41;94545.78;;;3.06;86.17
6150;BME280;3106;42.670;23.318;2023-11-19T07:40:11;94558.34;;;3.14;85.95
6150;BME280;3106;42.670;23.318;2023-11-19T07:42:38;94587.59;;;3.45;86.16
6150;BME280;3106;42.670;23.318;2023-11-19T07:45:06;94551.06;;;3.20;85.39
6150;BME280;3106;42.670;23.318;2023-11-19T07:47:33;94566.75;;;3.30;85.39
6150;BME280;3106;42.670;23.318;2023-11-19T07:50:00;94550.50;;;3.23;85.71
6150;BME280;3106;42.670;23.318;2023-11-19T07:52:27;94586.50;;;3.32;85.41
6150;BME280;3106;42.670;23.318;2023-11-19T07:54:54;94461.53;;;2.51;85.71
6150;BME280;3106;42.670;23.318;2023-11-19T07:57:24;94538.63;;;2.93;85.91
6150;BME280;3106;42.670;23.318;2023-11-19T07:59:53;94539.75;;;3.19;85.62
6150;BME280;3106;42.670;23.318;2023-11-19T08:02:20;94551.69;;;3.30;84.84
6150;BME280;3106;42.670;23.318;2023-11-19T08:04:47;94521.94;;;2.98;85.17
6150;BME280;3106;42.670;23.318;2023-11-19T08:07:17;94486.13;;;2.79;84.26
6150;BME280;3106;42.670;23.318;2023-11-19T08:09:45;94510.28;;;2.99;84.37
6150;BME280;3106;42.670;23.318;2023-11-19T08:12:12;94429.59;;;2.53;84.01
6150;BME280;3106;42.670;23.318;2023-11-19T08:14:42;94408.25;;;2.36;84.05
6150;BME280;3106;42.670;23.318;2023-11-19T08:17:09;94571.53;;;3.41;83.40
6150;BME280;3106;42.670;23.318;2023-11-19T08:19:36;94428.63;;;2.49;83.60
6150;BME280;3106;42.670;23.318;2023-11-19T08:22:03;94535.81;;;3.17;83.76
6150;BME280;3106;42.670;23.318;2023-11-19T08:24:30;94514.50;;;3.13;83.49
6150;BME280;3106;42.670;23.318;2023-11-19T08:26:57;94475.28;;;3.07;82.97
6150;BME280;3106;42.670;23.318;2023-11-19T08:29:24;94494.94;;;3.14;83.15
6150;BME280;3106;42.670;23.318;2023-11-19T08:31:54;94599.19;;;3.98;82.48
6150;BME280;3106;42.670;23.318;2023-11-19T08:34:22;94564.41;;;3.55;82.12
6150;BME280;3106;42.670;23.318;2023-11-19T08:36:50;94451.50;;;2.80;82.37
6150;BME280;3106;42.670;23.318;2023-11-19T08:39:18;94550.09;;;3.70;81.80
6150;BME280;3106;42.670;23.318;2023-11-19T08:41:49;94628.59;;;4.10;82.02
6150;BME280;3106;42.670;23.318;2023-11-19T08:44:18;94476.75;;;3.13;81.55
6150;BME280;3106;42.670;23.318;2023-11-19T08:46:48;94510.31;;;3.12;81.78
6150;BME280;3106;42.670;23.318;2023-11-19T08:49:17;94420.72;;;2.62;82.36
6150;BME280;3106;42.670;23.318;2023-11-19T08:51:44;94543.44;;;3.45;82.41
6150;BME280;3106;42.670;23.318;2023-11-19T08:54:11;94595.91;;;3.79;82.06
6150;BME280;3106;42.670;23.318;2023-11-19T08:56:39;94557.56;;;3.54;81.55
6150;BME280;3106;42.670;23.318;2023-11-19T08:59:06;94590.63;;;3.65;81.33
6150;BME280;3106;42.670;23.318;2023-11-19T09:01:34;94537.97;;;3.28;80.66
6150;BME280;3106;42.670;23.318;2023-11-19T09:04:01;94551.88;;;3.47;81.29
6150;BME280;3106;42.670;23.318;2023-11-19T09:06:31;94565.16;;;3.56;82.29
6150;BME280;3106;42.670;23.318;2023-11-19T09:08:58;94560.19;;;3.68;81.82
6150;BME280;3106;42.670;23.318;2023-11-19T09:11:28;94541.00;;;3.62;81.55
6150;BME280;3106;42.670;23.318;2023-11-19T09:13:55;94492.56;;;3.53;80.75
6150;BME280;3106;42.670;23.318;2023-11-19T09:16:23;94574.28;;;4.12;80.49
6150;BME280;3106;42.670;23.318;2023-11-19T09:18:51;94598.41;;;4.24;80.52
6150;BME280;3106;42.670;23.318;2023-11-19T09:21:19;94544.97;;;3.87;80.00
6150;BME280;3106;42.670;23.318;2023-11-19T09:23:50;94619.56;;;4.11;80.01
6150;BME280;3106;42.670;23.318;2023-11-19T09:26:18;94609.66;;;4.16;80.27
6150;BME280;3106;42.670;23.318;2023-11-19T09:28:46;94573.00;;;3.74;80.10
6150;BME280;3106;42.670;23.318;2023-11-19T09:31:13;94488.00;;;3.18;80.09
6150;BME280;3106;42.670;23.318;2023-11-19T09:33:40;94624.06;;;4.10;80.32
6150;BME280;3106;42.670;23.318;2023-11-19T09:36:08;94515.13;;;3.73;79.76
6150;BME280;3106;42.670;23.318;2023-11-19T09:38:36;94423.75;;;2.96;79.18
6150;BME280;3106;42.670;23.318;2023-11-19T09:41:06;94528.25;;;3.78;79.95
6150;BME280;3106;42.670;23.318;2023-11-19T09:43:35;94553.94;;;4.13;80.46
6150;BME280;3106;42.670;23.318;2023-11-19T09:46:06;94462.59;;;3.44;79.53
6150;BME280;3106;42.670;23.318;2023-11-19T09:48:35;94498.91;;;3.66;80.49
6150;BME280;3106;42.670;23.318;2023-11-19T09:51:06;94522.81;;;3.96;80.39
6150;BME280;3106;42.670;23.318;2023-11-19T09:53:34;94509.38;;;3.71;80.95
6150;BME280;3106;42.670;23.318;2023-11-19T09:56:02;94379.59;;;3.23;80.69
6150;BME280;3106;42.670;23.318;2023-11-19T09:58:31;94379.72;;;3.05;79.94
6150;BME280;3106;42.670;23.318;2023-11-19T10:00:59;94567.16;;;4.35;80.55
6150;BME280;3106;42.670;23.318;2023-11-19T10:03:27;94548.31;;;4.49;79.80
6150;BME280;3106;42.670;23.318;2023-11-19T10:05:58;94423.06;;;3.88;78.68
6150;BME280;3106;42.670;23.318;2023-11-19T10:08:25;94490.63;;;4.60;77.34
6150;BME280;3106;42.670;23.318;2023-11-19T10:10:52;94552.28;;;5.13;77.31
6150;BME280;3106;42.670;23.318;2023-11-19T10:13:19;94525.13;;;4.77;77.89
6150;BME280;3106;42.670;23.318;2023-11-19T10:15:55;94415.16;;;3.97;77.91
6150;BME280;3106;42.670;23.318;2023-11-19T10:18:27;94453.88;;;4.15;77.45
6150;BME280;3106;42.670;23.318;2023-11-19T10:20:54;94453.50;;;4.30;76.65
6150;BME280;3106;42.670;23.318;2023-11-19T10:23:21;94523.75;;;5.10;73.70
6150;BME280;3106;42.670;23.318;2023-11-19T10:25:53;94481.25;;;5.23;71.17
6150;BME280;3106;42.670;23.318;2023-11-19T10:28:25;94487.53;;;5.36;71.50
6150;BME280;3106;42.670;23.318;2023-11-19T10:30:57;94503.56;;;5.87;69.02
6150;BME280;3106;42.670;23.318;2023-11-19T10:33:28;94454.38;;;5.72;67.98
6150;BME280;3106;42.670;23.318;2023-11-19T10:35:57;94463.00;;;6.03;65.64
6150;BME280;3106;42.670;23.318;2023-11-19T10:38:25;94434.13;;;5.85;64.38
6150;BME280;3106;42.670;23.318;2023-11-19T10:40:54;94426.13;;;5.51;66.57
6150;BME280;3106;42.670;23.318;2023-11-19T10:43:22;94460.44;;;5.64;66.06
6150;BME280;3106;42.670;23.318;2023-11-19T10:45:49;94552.66;;;6.23;66.23
6150;BME280;3106;42.670;23.318;2023-11-19T10:48:18;94559.66;;;6.36;65.28
6150;BME280;3106;42.670;23.318;2023-11-19T10:50:49;94493.28;;;6.19;64.54
6150;BME280;3106;42.670;23.318;2023-11-19T10:53:20;94439.72;;;5.75;64.59
6150;BME280;3106;42.670;23.318;2023-11-19T10:55:48;94364.78;;;5.18;66.32
6150;BME280;3106;42.670;23.318;2023-11-19T10:58:16;94542.47;;;6.67;64.60
6150;BME280;3106;42.670;23.318;2023-11-19T11:00:44;94534.84;;;6.40;65.64
6150;BME280;3106;42.670;23.318;2023-11-19T11:03:19;94429.25;;;5.61;65.70
6150;BME280;3106;42.670;23.318;2023-11-19T11:05:49;94394.34;;;5.85;64.49
6150;BME280;3106;42.670;23.318;2023-11-19T11:08:17;94454.44;;;6.23;63.27
6150;BME280;3106;42.670;23.318;2023-11-19T11:10:45;94378.88;;;5.70;63.33
6150;BME280;3106;42.670;23.318;2023-11-19T11:13:14;94489.22;;;6.13;64.46
6150;BME280;3106;42.670;23.318;2023-11-19T11:15:41;94494.69;;;6.08;65.16
6150;BME280;3106;42.670;23.318;2023-11-19T11:18:09;94494.88;;;6.20;65.57
6150;BME280;3106;42.670;23.318;2023-11-19T11:20:37;94484.56;;;6.27;65.42
6150;BME280;3106;42.670;23.318;2023-11-19T11:23:37;94465.66;;;6.11;65.34
6150;BME280;3106;42.670;23.318;2023-11-19T11:26:25;94451.00;;;6.05;64.08
6150;BME280;3106;42.670;23.318;2023-11-19T11:28:59;94472.69;;;5.99;64.01
6150;BME280;3106;42.670;23.318;2023-11-19T11:31:36;94483.47;;;6.02;63.99
6150;BME280;3106;42.670;23.318;2023-11-19T11:37:18;94490.00;;;5.96;66.95
6150;BME280;3106;42.670;23.318;2023-11-19T11:39:46;94488.59;;;5.91;67.47
6150;BME280;3106;42.670;23.318;2023-11-19T11:42:35;94479.06;;;5.81;66.99
6150;BME280;3106;42.670;23.318;2023-11-19T11:45:04;94434.94;;;5.85;66.37
6150;BME280;3106;42.670;23.318;2023-11-19T11:50:53;94464.75;;;6.07;65.71
6150;BME280;3106;42.670;23.318;2023-11-19T11:53:23;94485.94;;;5.82;67.24
6150;BME280;3106;42.670;23.318;2023-11-19T11:55:55;94462.19;;;5.69;67.46
6150;BME280;3106;42.670;23.318;2023-11-19T11:58:35;94474.06;;;5.80;67.81
6150;BME280;3106;42.670;23.318;2023-11-19T12:01:05;94475.59;;;5.72;67.88
6150;BME280;3106;42.670;23.318;2023-11-19T12:03:35;94461.22;;;5.65;67.84
6150;BME280;3106;42.670;23.318;2023-11-19T12:06:04;94473.63;;;5.86;67.53
6150;BME280;3106;42.670;23.318;2023-11-19T12:08:34;94469.72;;;5.84;67.16
6150;BME280;3106;42.670;23.318;2023-11-19T12:11:01;94456.72;;;5.74;66.97
6150;BME280;3106;42.670;23.318;2023-11-19T12:13:55;94423.06;;;5.83;66.66
6150;BME280;3106;42.670;23.318;2023-11-19T12:16:25;94456.16;;;6.10;65.92
6150;BME280;3106;42.670;23.318;2023-11-19T12:18:53;94448.94;;;6.36;66.46
6150;BME280;3106;42.670;23.318;2023-11-19T12:21:30;94437.72;;;6.31;65.53
6150;BME280;3106;42.670;23.318;2023-11-19T12:24:00;94440.34;;;6.39;65.17
6150;BME280;3106;42.670;23.318;2023-11-19T12:26:37;94398.41;;;6.07;65.34
6150;BME280;3106;42.670;23.318;2023-11-19T12:29:05;94434.53;;;6.54;64.56
6150;BME280;3106;42.670;23.318;2023-11-19T12:31:32;94435.56;;;6.70;64.23
6150;BME280;3106;42.670;23.318;2023-11-19T12:34:08;94430.59;;;6.69;63.96
6150;BME280;3106;42.670;23.318;2023-11-19T12:36:38;94429.25;;;6.92;62.65
6150;BME280;3106;42.670;23.318;2023-11-19T12:39:06;94324.66;;;6.21;63.56
6150;BME280;3106;42.670;23.318;2023-11-19T12:41:52;94427.28;;;6.80;64.32
6150;BME280;3106;42.670;23.318;2023-11-19T12:44:26;94378.72;;;6.08;65.88
6150;BME280;3106;42.670;23.318;2023-11-19T12:47:07;94406.94;;;6.21;66.70
6150;BME280;3106;42.670;23.318;2023-11-19T12:49:37;94273.00;;;5.22;66.98
6150;BME280;3106;42.670;23.318;2023-11-19T12:52:17;94442.56;;;6.03;68.09
6150;BME280;3106;42.670;23.318;2023-11-19T12:54:50;94328.50;;;5.36;69.61
6150;BME280;3106;42.670;23.318;2023-11-19T12:57:38;94258.63;;;4.89;69.84
6150;BME280;3106;42.670;23.318;2023-11-19T13:00:17;94283.88;;;5.04;69.98
6150;BME280;3106;42.670;23.318;2023-11-19T13:02:58;94406.19;;;6.04;69.99
6150;BME280;3106;42.670;23.318;2023-11-19T13:05:27;94347.38;;;5.51;69.24
6150;BME280;3106;42.670;23.318;2023-11-19T13:08:09;94335.03;;;5.55;69.48
6150;BME280;3106;42.670;23.318;2023-11-19T13:14:11;94318.03;;;5.48;70.00
6150;BME280;3106;42.670;23.318;2023-11-19T13:16:54;94233.84;;;5.02;70.08
6150;BME280;3106;42.670;23.318;2023-11-19T13:19:22;94402.44;;;6.05;70.52
6150;BME280;3106;42.670;23.318;2023-11-19T13:21:50;94273.13;;;5.26;69.70
6150;BME280;3106;42.670;23.318;2023-11-19T13:24:17;94345.34;;;5.74;69.98
6150;BME280;3106;42.670;23.318;2023-11-19T13:26:44;94281.56;;;5.45;69.26
6150;BME280;3106;42.670;23.318;2023-11-19T13:29:13;94346.91;;;5.92;69.18
6150;BME280;3106;42.670;23.318;2023-11-19T13:31:40;94366.50;;;6.24;68.32
6150;BME280;3106;42.670;23.318;2023-11-19T13:34:07;94249.75;;;5.45;69.11
6150;BME280;3106;42.670;23.318;2023-11-19T13:36:34;94322.25;;;5.83;69.12
6150;BME280;3106;42.670;23.318;2023-11-19T13:39:04;94177.91;;;5.04;69.30
6150;BME280;3106;42.670;23.318;2023-11-19T13:41:32;94340.31;;;5.97;68.96